Lacoochee, Florida
Current Conditions -  °F | °C
As of 2:15 PM on Tuesday 21 Oct 2014 (Local Time) from KZPH Reporting Station
Clear Clear  
Wind Chill: 82°   Ceiling: Unl
Heat Index: 83°   Visibility: NA
Dew Point: 61°   Wind: 0mph
Humidity: 48%   Direction: NA
Pressure: 29.94"   Gusts: NA
Location:  28.47°N, 82.17°W
Report Text: KZPH 211815Z AUTO 00000KT CLR 28/16 A2994 RMK AO2 PWINO
Loading
Personal Weather Stations






























Interactive Weather Map
Tropical Storm Tracking
New forecast layout! Learn more

10-Day Weather Forecast

Advertisements
Track Severe Weather on mobile